LGZA/ZTH METAR and TAF weather

Enter ICAO airport designator
Station Type Date Time Source
LGZA METAR 2022/01/19 17:50 UTC NOAA

LGZA 191750Z VRB02KT 9999 FEW020 05/02 Q1030


Station Type Date Time Source
LGZA Decoded METAR 2022/01/19 17:50 UTC NOAA

Zakinthos Airport , Greece (LGZA) 37-45N 020-53E
Jan 19, 2022 - 12:50 PM EST / 2022.01.19 1750 UTC
Wind: Variable at 2 MPH (2 KT):0
Visibility: greater than 7 mile(s):0
Sky conditions: mostly clear
Temperature: 41 F (5 C)
Dew Point: 35 F (2 C)
Relative Humidity: 80%
Pressure (altimeter): 30.42 in. Hg (1030 hPa)
ob: LGZA 191750Z VRB02KT 9999 FEW020 05/02 Q1030
cycle: 18

Station Type Date Time Source
LGZA TAF 2011/11/25 15:06 UTC NOAA

TAF TAF LGZA 251400Z 2515/2603 02012KT 9999 FEW025 SCT035 BKN080 PROB30
TEMPO 2518/2603 8000 RA PROB30 2522/2603 5000 BR SCT010

Example: see airport list